Time;durP1;ratioP1;P1;durP2;ratioP2;P2;SDS_P1;SDS_P2;PMS_P1;PMS_P2;Temp;Humidity;BMP_temperature;BMP_pressure;BME280_temperature;BME280_humidity;BME280_pressure;Samples;Min_cycle;Max_cycle;Signal;HPM_P1;HPM_P2
2023/11/02 03:48:37;;;;;;;1.80;1.00;;;0.30;99.90;;;;;;1757442;80;25293;-90
2023/11/02 04:55:35;;;;;;;1.07;1.00;;;0.20;99.90;;;;;;1942294;72;27057;-90
2023/11/02 04:58:24;;;;;;;1.53;1.00;;;0.20;99.90;;;;;;1876646;75;25331;-90
2023/11/02 05:01:13;;;;;;;1.20;1.10;;;0.20;99.90;;;;;;1856483;76;25976;-90
2023/11/02 05:04:01;;;;;;;1.70;0.70;;;0.20;99.90;;;;;;1885229;75;25297;-90
2023/11/02 05:06:50;;;;;;;0.83;0.83;;;0.20;99.90;;;;;;1877206;76;25261;-89
2023/11/02 05:09:39;;;;;;;1.83;1.03;;;0.20;99.90;;;;;;1885652;75;25861;-90
2023/11/02 05:12:27;;;;;;;1.87;1.40;;;0.20;99.90;;;;;;1889860;75;25675;-90
2023/11/02 05:15:17;;;;;;;0.90;0.90;;;0.30;99.90;;;;;;1861804;76;25715;-90
2023/11/02 05:18:06;;;;;;;0.80;0.80;;;0.30;99.90;;;;;;1829859;77;25364;-90
2023/11/02 05:20:57;;;;;;;1.03;1.00;;;0.20;99.90;;;;;;1837718;76;25393;-89
2023/11/02 05:23:47;;;;;;;0.93;0.90;;;0.20;99.90;;;;;;1862464;75;25697;-89
2023/11/02 05:26:39;;;;;;;1.97;1.57;;;0.20;99.90;;;;;;1881170;75;25208;-90
2023/11/02 05:30:14;;;;;;;1.53;1.17;;;0.30;99.90;;;;;;1906148;73;25262;-89
2023/11/02 05:33:06;;;;;;;1.03;0.90;;;0.30;99.90;;;;;;1881112;75;25312;-90
2023/11/02 05:36:27;;;;;;;0.93;0.87;;;0.20;99.90;;;;;;1867652;76;25273;-89
2023/11/02 05:39:57;;;;;;;1.10;1.00;;;0.20;99.90;;;;;;1830394;76;25269;-90
2023/11/02 05:42:58;;;;;;;2.07;1.17;;;0.20;99.90;;;;;;1867583;76;25284;-90
2023/11/02 05:46:03;;;;;;;1.60;1.50;;;0.20;99.90;;;;;;1834439;76;25205;-90
2023/11/02 05:49:32;;;;;;;0.83;0.83;;;0.30;99.90;;;;;;1857366;76;25261;-90
2023/11/02 06:14:25;;;;;;;1.50;1.23;;;0.30;99.90;;;;;;1919683;74;25313;-91
2023/11/02 06:17:39;;;;;;;1.23;1.13;;;0.30;99.90;;;;;;1927996;74;25340;-89
2023/11/02 06:25:09;;;;;;;1.57;1.00;;;0.30;99.90;;;;;;1923052;74;25271;-90
2023/11/02 06:43:05;;;;;;;1.20;1.20;;;0.40;99.90;;;;;;1908667;73;25696;-90
2023/11/02 06:58:02;;;;;;;0.80;0.77;;;0.50;99.90;;;;;;2047290;69;25229;-90
2023/11/02 07:01:21;;;;;;;0.93;0.87;;;0.50;99.90;;;;;;2053361;69;25155;-90
2023/11/02 07:22:42;;;;;;;0.77;0.60;;;0.50;99.90;;;;;;2030872;70;25227;-90
2023/11/02 07:26:15;;;;;;;1.07;0.90;;;0.50;99.90;;;;;;2036013;69;25261;-89
2023/11/02 07:29:07;;;;;;;1.00;1.00;;;0.50;99.90;;;;;;2031923;69;25281;-89
2023/11/02 07:32:21;;;;;;;1.03;1.03;;;0.50;99.90;;;;;;2033858;69;25239;-90
2023/11/02 09:29:21;;;;;;;1.00;1.00;;;1.10;99.90;;;;;;1874040;76;25289;-89
2023/11/02 09:33:06;;;;;;;1.60;1.50;;;1.10;99.90;;;;;;1933922;72;25156;-89
2023/11/02 09:36:30;;;;;;;1.40;1.10;;;1.10;99.90;;;;;;1940739;73;26272;-88
2023/11/02 09:40:05;;;;;;;0.67;0.67;;;1.10;99.90;;;;;;1946732;73;25797;-89
2023/11/02 09:43:35;;;;;;;1.27;1.17;;;1.10;99.90;;;;;;1930462;73;25209;-89
2023/11/02 09:54:52;;;;;;;1.03;1.03;;;1.40;99.90;;;;;;1905354;73;26754;-90
2023/11/02 09:58:06;;;;;;;0.83;0.83;;;1.40;99.90;;;;;;1968463;71;25205;-89
2023/11/02 10:01:17;;;;;;;0.87;0.87;;;1.50;99.90;;;;;;1967819;72;25288;-89
2023/11/02 10:04:31;;;;;;;0.87;0.50;;;1.60;99.90;;;;;;1971021;71;25158;-88
2023/11/02 10:08:02;;;;;;;0.60;0.60;;;1.50;99.90;;;;;;1967422;71;25229;-88
2023/11/02 10:10:55;;;;;;;1.10;1.07;;;1.50;99.90;;;;;;1975274;71;25247;-88
2023/11/02 10:13:50;;;;;;;0.80;0.80;;;1.50;99.90;;;;;;1954628;71;25768;-89
2023/11/02 10:16:40;;;;;;;1.00;0.90;;;1.50;99.90;;;;;;1958376;71;25219;-88
2023/11/02 10:19:36;;;;;;;1.40;0.77;;;1.50;99.90;;;;;;1959587;71;25202;-88
2023/11/02 10:22:30;;;;;;;0.73;0.73;;;1.50;99.90;;;;;;1948119;73;25157;-88
2023/11/02 10:25:22;;;;;;;0.73;0.73;;;1.50;99.90;;;;;;1977533;71;25324;-88
2023/11/02 10:28:22;;;;;;;0.70;0.70;;;1.50;99.90;;;;;;1975620;71;25159;-88
2023/11/02 10:31:18;;;;;;;2.73;1.00;;;1.50;99.90;;;;;;1965668;72;25774;-88
2023/11/02 10:34:12;;;;;;;1.00;0.90;;;1.60;99.90;;;;;;1966846;71;25236;-88
2023/11/02 10:37:07;;;;;;;0.60;0.60;;;1.60;99.90;;;;;;1971921;71;25267;-88
2023/11/02 10:39:59;;;;;;;1.00;1.00;;;1.60;99.90;;;;;;1957089;73;25717;-89
2023/11/02 10:42:52;;;;;;;1.30;0.80;;;1.60;99.90;;;;;;1950523;71;25312;-88
2023/11/02 10:45:45;;;;;;;0.70;0.57;;;1.60;99.90;;;;;;1929301;73;25308;-88
2023/11/02 10:51:30;;;;;;;0.90;0.90;;;1.60;99.90;;;;;;1943405;72;27126;-88
2023/11/02 10:54:30;;;;;;;0.67;0.67;;;1.60;99.90;;;;;;1917383;73;25349;-89
2023/11/02 10:57:24;;;;;;;0.60;0.60;;;1.70;99.90;;;;;;1936122;73;25221;-88
2023/11/02 11:00:17;;;;;;;1.90;1.20;;;1.70;99.90;;;;;;1930859;73;25150;-89
2023/11/02 11:03:09;;;;;;;0.50;0.50;;;1.70;99.90;;;;;;1918126;73;25227;-88
2023/11/02 11:06:01;;;;;;;0.93;0.77;;;1.70;99.90;;;;;;1920522;73;25703;-88
2023/11/02 11:08:51;;;;;;;1.70;0.60;;;1.80;99.90;;;;;;1926963;73;25210;-89
2023/11/02 11:11:42;;;;;;;0.90;0.90;;;1.80;99.90;;;;;;1923167;73;25213;-88
2023/11/02 11:14:34;;;;;;;1.63;0.90;;;1.80;99.90;;;;;;1924727;73;25295;-88
2023/11/02 11:20:16;;;;;;;4.80;1.30;;;1.80;99.90;;;;;;1951234;72;27004;-88
2023/11/02 11:23:07;;;;;;;0.70;0.70;;;1.80;99.90;;;;;;1874751;76;25250;-87
2023/11/02 11:26:02;;;;;;;1.50;0.67;;;1.80;99.90;;;;;;1936199;73;25336;-89
2023/11/02 11:28:55;;;;;;;0.97;0.97;;;1.80;99.90;;;;;;1888224;75;25638;-88
2023/11/02 11:31:54;;;;;;;0.60;0.60;;;1.80;99.90;;;;;;1896327;75;25303;-88
2023/11/02 11:35:12;;;;;;;0.70;0.70;;;1.80;99.90;;;;;;1926871;73;25266;-89
2023/11/02 11:38:02;;;;;;;0.53;0.53;;;1.80;99.90;;;;;;1916454;75;25194;-88
2023/11/02 11:40:52;;;;;;;1.00;0.80;;;1.80;99.90;;;;;;1918119;73;25330;-88
2023/11/02 11:44:07;;;;;;;1.60;0.83;;;1.90;99.90;;;;;;1889857;73;25261;-89
2023/11/02 11:47:00;;;;;;;0.60;0.60;;;1.90;99.90;;;;;;1902408;74;25849;-88
2023/11/02 11:49:50;;;;;;;0.43;0.43;;;1.90;99.90;;;;;;1894487;75;25314;-89
2023/11/02 11:52:41;;;;;;;0.50;0.50;;;1.80;99.90;;;;;;1893274;75;25403;-88
2023/11/02 11:55:41;;;;;;;0.60;0.60;;;1.90;99.90;;;;;;1890130;74;25299;-88
2023/11/02 11:58:50;;;;;;;0.60;0.60;;;1.90;99.90;;;;;;1892983;74;25759;-88
2023/11/02 12:01:40;;;;;;;0.60;0.60;;;1.90;99.90;;;;;;1884551;74;25275;-89
2023/11/02 12:04:48;;;;;;;0.50;0.50;;;1.90;99.90;;;;;;1910941;74;25227;-88
2023/11/02 12:07:38;;;;;;;0.50;0.50;;;1.90;99.90;;;;;;1859029;76;25211;-89
2023/11/02 12:10:27;;;;;;;0.73;0.73;;;1.90;99.90;;;;;;1896705;75;25186;-89
2023/11/02 12:13:16;;;;;;;1.60;0.80;;;2.00;99.90;;;;;;1875672;75;25743;-89
2023/11/02 12:16:06;;;;;;;0.50;0.50;;;1.90;99.90;;;;;;1897768;75;25259;-89
2023/11/02 12:18:56;;;;;;;0.50;0.50;;;2.00;99.90;;;;;;1881146;75;25276;-89
2023/11/02 12:21:46;;;;;;;0.70;0.70;;;1.90;99.90;;;;;;1876300;74;25344;-89
2023/11/02 12:24:38;;;;;;;1.20;1.10;;;1.90;99.90;;;;;;1896968;74;25799;-89
2023/11/02 12:27:26;;;;;;;0.87;0.70;;;1.90;99.90;;;;;;1894763;74;25187;-88
2023/11/02 12:30:15;;;;;;;1.50;0.97;;;1.90;99.90;;;;;;1852561;76;25324;-88
2023/11/02 12:33:05;;;;;;;0.67;0.67;;;1.90;99.90;;;;;;1900770;74;25267;-88
2023/11/02 12:35:57;;;;;;;1.57;1.17;;;1.90;99.90;;;;;;1885313;75;25867;-88
2023/11/02 12:38:48;;;;;;;0.80;0.80;;;1.90;99.90;;;;;;1894666;74;25925;-88
2023/11/02 12:41:37;;;;;;;0.50;0.50;;;1.90;99.90;;;;;;1855247;76;25290;-88
2023/11/02 12:48:03;;;;;;;1.60;1.10;;;1.90;99.90;;;;;;2010351;71;27068;-89
2023/11/02 12:53:50;;;;;;;0.70;0.70;;;1.80;99.90;;;;;;1940607;72;29483;-89
2023/11/02 12:56:40;;;;;;;0.53;0.53;;;1.80;99.90;;;;;;1916650;73;25735;-89
2023/11/02 12:59:43;;;;;;;0.83;0.83;;;1.80;99.90;;;;;;1917768;73;25220;-89
2023/11/02 13:05:52;;;;;;;0.70;0.70;;;1.80;99.90;;;;;;1955114;72;26870;-89
2023/11/02 13:11:38;;;;;;;2.40;0.90;;;1.90;99.90;;;;;;1946043;72;27493;-89
2023/11/02 13:14:28;;;;;;;1.60;1.10;;;1.90;99.90;;;;;;1895700;75;25293;-89
2023/11/02 13:17:17;;;;;;;3.40;1.00;;;1.80;99.90;;;;;;1883713;75;25317;-89
2023/11/02 13:22:57;;;;;;;0.80;0.80;;;1.90;99.90;;;;;;2048987;69;27025;-89
2023/11/02 13:25:47;;;;;;;2.43;1.10;;;1.90;99.90;;;;;;1985574;71;25333;-88
2023/11/02 13:28:38;;;;;;;2.57;1.13;;;1.80;99.90;;;;;;2008995;71;25196;-88
2023/11/02 13:31:32;;;;;;;1.03;0.70;;;1.80;99.90;;;;;;1991019;71;25720;-88
2023/11/02 13:34:22;;;;;;;0.80;0.80;;;1.80;99.90;;;;;;1992112;71;25501;-88
2023/11/02 13:37:11;;;;;;;0.77;0.77;;;1.80;99.90;;;;;;2004149;71;25230;-88
2023/11/02 13:40:03;;;;;;;1.03;0.97;;;1.80;99.90;;;;;;1988658;71;25323;-88
2023/11/02 13:42:51;;;;;;;2.57;0.80;;;1.80;99.90;;;;;;1994054;71;25260;-89
2023/11/02 13:45:40;;;;;;;1.20;1.10;;;1.80;99.90;;;;;;1993511;71;25157;-89
2023/11/02 13:48:30;;;;;;;1.17;0.80;;;1.80;99.90;;;;;;1997271;71;25192;-89
2023/11/02 13:51:20;;;;;;;3.27;1.10;;;1.80;99.90;;;;;;1991036;71;25663;-89
2023/11/02 13:54:09;;;;;;;1.70;1.20;;;1.80;99.90;;;;;;1984672;71;25221;-89
2023/11/02 13:56:58;;;;;;;0.70;0.70;;;1.80;99.90;;;;;;1991281;71;25287;-89
2023/11/02 14:03:08;;;;;;;3.60;1.50;;;1.80;99.90;;;;;;1980728;71;26919;-90
2023/11/02 14:05:59;;;;;;;1.20;0.83;;;1.90;99.90;;;;;;1953834;72;25242;-89
2023/11/02 14:11:34;;;;;;;1.37;1.03;;;1.80;99.90;;;;;;1958071;72;28284;-89
2023/11/02 14:14:27;;;;;;;1.07;0.97;;;1.80;99.90;;;;;;1908017;74;25251;-89
2023/11/02 14:17:16;;;;;;;1.63;0.80;;;1.80;99.90;;;;;;1915145;74;25641;-88
2023/11/02 14:20:09;;;;;;;1.77;1.07;;;1.80;99.90;;;;;;1922310;73;25188;-89
2023/11/02 14:23:00;;;;;;;1.83;1.03;;;1.80;99.90;;;;;;1908620;73;25263;-88
2023/11/02 14:25:50;;;;;;;1.10;1.00;;;1.70;99.90;;;;;;1909624;73;25754;-89
2023/11/02 14:28:40;;;;;;;1.50;1.40;;;1.70;99.90;;;;;;1908809;74;25264;-88
2023/11/02 14:31:30;;;;;;;1.20;1.10;;;1.70;99.90;;;;;;1925583;73;25914;-89
2023/11/02 14:34:20;;;;;;;4.10;0.73;;;1.70;99.90;;;;;;1919991;73;25313;-89
2023/11/02 14:37:08;;;;;;;1.87;0.87;;;1.70;99.90;;;;;;1923211;73;25296;-89
2023/11/02 14:39:58;;;;;;;1.97;1.47;;;1.70;99.90;;;;;;1922828;73;25303;-89
2023/11/02 14:42:47;;;;;;;3.50;1.30;;;1.70;99.90;;;;;;1874987;75;25260;-89
2023/11/02 14:45:38;;;;;;;1.53;1.07;;;1.70;99.90;;;;;;1880801;75;25183;-89
2023/11/02 14:48:27;;;;;;;1.17;0.80;;;1.70;99.90;;;;;;1882008;75;25327;-89
2023/11/02 14:54:04;;;;;;;2.73;1.90;;;1.80;99.90;;;;;;1925090;72;27594;-89
2023/11/02 14:56:53;;;;;;;1.70;1.43;;;1.80;99.90;;;;;;1882319;75;25669;-88
2023/11/02 14:59:44;;;;;;;1.50;1.30;;;1.80;99.90;;;;;;1840314;76;25196;-89
2023/11/02 15:02:35;;;;;;;1.20;1.10;;;1.80;99.90;;;;;;1837998;76;25250;-89
2023/11/02 15:05:24;;;;;;;2.73;1.10;;;1.80;99.90;;;;;;1908722;75;25277;-89
2023/11/02 15:08:17;;;;;;;4.17;1.40;;;1.80;99.90;;;;;;1878778;75;25212;-89
2023/11/02 15:11:04;;;;;;;2.50;1.53;;;1.80;99.90;;;;;;1808671;78;25379;-89
2023/11/02 15:13:53;;;;;;;5.13;1.07;;;1.80;99.90;;;;;;1905659;75;25155;-89
2023/11/02 15:16:44;;;;;;;1.00;0.70;;;1.80;99.90;;;;;;1871375;75;25250;-89
2023/11/02 15:19:33;;;;;;;4.50;1.57;;;1.80;99.90;;;;;;1817768;77;25831;-89
2023/11/02 15:22:22;;;;;;;1.47;1.30;;;1.80;99.90;;;;;;1902701;74;25171;-90
2023/11/02 15:25:11;;;;;;;1.03;1.00;;;1.90;99.90;;;;;;1908699;73;25304;-89
2023/11/02 15:28:01;;;;;;;4.23;1.83;;;1.90;99.90;;;;;;1871316;76;25591;-90
2023/11/02 15:30:50;;;;;;;5.40;1.57;;;1.90;99.90;;;;;;1842545;76;25228;-88
2023/11/02 15:33:39;;;;;;;6.20;1.63;;;1.90;99.90;;;;;;1903706;74;25241;-88
2023/11/02 15:36:28;;;;;;;2.43;1.53;;;1.90;99.90;;;;;;1854941;75;25800;-89
2023/11/02 15:39:18;;;;;;;12.23;1.10;;;1.90;99.90;;;;;;1874383;75;25228;-88
2023/11/02 16:08:41;;;;;;;10.90;2.73;;;2.00;99.90;;;;;;1987615;71;26381;-90
2023/11/02 16:11:30;;;;;;;5.87;2.10;;;2.20;99.90;;;;;;2026847;69;25180;-89
2023/11/02 16:14:19;;;;;;;7.57;1.40;;;2.20;99.90;;;;;;2012576;69;25497;-90
2023/11/02 16:17:07;;;;;;;2.73;1.57;;;2.20;99.90;;;;;;2009601;70;25222;-89
2023/11/02 16:20:00;;;;;;;5.93;1.90;;;2.20;99.90;;;;;;2032346;69;25214;-89
2023/11/02 16:22:48;;;;;;;6.83;2.00;;;2.20;99.90;;;;;;2026707;70;25835;-89
2023/11/02 16:25:38;;;;;;;1.57;1.23;;;2.20;99.90;;;;;;2030497;70;25623;-89
2023/11/02 16:28:27;;;;;;;4.80;1.97;;;2.30;99.90;;;;;;2000046;69;25194;-89
2023/11/02 16:31:23;;;;;;;3.23;1.20;;;2.30;99.90;;;;;;2020134;69;25247;-89
2023/11/02 16:34:17;;;;;;;3.87;1.47;;;2.30;99.90;;;;;;2020040;70;25735;-89
2023/11/02 16:37:03;;;;;;;2.97;1.47;;;2.30;99.90;;;;;;2021370;69;25304;-90
2023/11/02 16:59:26;;;;;;;1.90;1.30;;;2.30;99.90;;;;;;1944070;72;27052;-90
2023/11/02 17:02:15;;;;;;;4.20;1.77;;;2.30;99.90;;;;;;1928865;73;25173;-89
2023/11/02 17:05:03;;;;;;;2.30;1.03;;;2.30;99.90;;;;;;1917238;73;25230;-89
2023/11/02 17:07:52;;;;;;;4.03;1.73;;;2.40;99.90;;;;;;1921164;73;26002;-89
2023/11/02 17:10:40;;;;;;;1.00;0.90;;;2.30;99.90;;;;;;1934102;73;25623;-89
2023/11/02 17:13:29;;;;;;;5.63;1.90;;;2.30;99.90;;;;;;1917633;73;25205;-89
2023/11/02 17:16:18;;;;;;;2.60;1.57;;;2.40;99.90;;;;;;1925362;73;25249;-89
2023/11/02 17:19:07;;;;;;;1.60;1.17;;;2.40;99.90;;;;;;1934654;73;25166;-89
2023/11/02 17:21:55;;;;;;;4.47;1.60;;;2.40;99.90;;;;;;1929300;73;25714;-89
2023/11/02 17:24:44;;;;;;;5.20;2.50;;;2.40;99.90;;;;;;1918124;73;25241;-88
2023/11/02 17:27:33;;;;;;;3.00;1.60;;;2.40;99.90;;;;;;1939851;73;25400;-89
2023/11/02 17:33:02;;;;;;;10.00;1.30;;;2.40;99.90;;;;;;1962332;71;28082;-89
2023/11/02 17:35:52;;;;;;;1.97;1.67;;;2.50;99.90;;;;;;1993117;71;25278;-90
2023/11/02 17:38:40;;;;;;;4.00;1.93;;;2.50;99.90;;;;;;1985994;71;25229;-89
2023/11/02 17:41:34;;;;;;;5.90;1.30;;;2.50;99.90;;;;;;1974240;71;25312;-89
2023/11/02 17:44:18;;;;;;;3.07;1.63;;;2.50;99.90;;;;;;1951231;72;25703;-89
2023/11/02 17:47:07;;;;;;;2.30;1.67;;;2.50;99.90;;;;;;1938981;72;25179;-89
2023/11/02 17:49:55;;;;;;;3.20;1.70;;;2.60;99.90;;;;;;1947002;72;25296;-89
2023/11/02 17:52:45;;;;;;;3.80;2.13;;;2.60;99.90;;;;;;1933682;72;25246;-89
2023/11/02 17:55:34;;;;;;;1.67;1.10;;;2.60;99.90;;;;;;1928926;72;25254;-89
2023/11/02 17:58:23;;;;;;;2.13;1.67;;;2.60;99.90;;;;;;1950053;72;25939;-89
2023/11/02 18:03:52;;;;;;;0.70;0.70;;;2.60;99.90;;;;;;1954400;71;26967;-89
2023/11/02 18:06:40;;;;;;;1.73;1.17;;;2.60;99.90;;;;;;1904363;74;25172;-89
2023/11/02 18:12:44;;;;;;;3.40;1.73;;;2.70;99.90;;;;;;2067328;68;26296;-89
2023/11/02 18:15:35;;;;;;;2.73;1.13;;;2.70;99.90;;;;;;2025892;69;25205;-89
2023/11/02 18:18:23;;;;;;;4.43;2.47;;;2.80;99.90;;;;;;2007860;70;25139;-89
2023/11/02 18:21:12;;;;;;;3.10;1.23;;;2.70;99.90;;;;;;2016130;69;25133;-87
2023/11/02 18:24:00;;;;;;;2.83;1.60;;;2.80;99.90;;;;;;1974388;72;25177;-87
2023/11/02 18:26:49;;;;;;;2.40;1.83;;;2.80;99.90;;;;;;1984476;70;25205;-87
2023/11/02 18:29:37;;;;;;;2.07;1.13;;;2.90;99.90;;;;;;2001633;69;25711;-88
2023/11/02 18:32:26;;;;;;;4.83;1.47;;;2.90;99.90;;;;;;1999345;71;25262;-88
2023/11/02 18:35:16;;;;;;;2.27;1.50;;;2.90;99.90;;;;;;1998255;71;25710;-88
2023/11/02 18:38:11;;;;;;;6.20;1.97;;;2.90;99.90;;;;;;1998485;71;25259;-88
2023/11/02 18:40:55;;;;;;;1.70;1.30;;;2.90;99.90;;;;;;2014589;71;25304;-87
2023/11/02 18:43:47;;;;;;;3.93;1.63;;;2.90;99.90;;;;;;1995031;71;25737;-88
2023/11/02 18:46:35;;;;;;;1.73;1.10;;;2.90;99.90;;;;;;1975382;72;25668;-88
2023/11/02 18:49:24;;;;;;;2.73;1.60;;;3.00;99.90;;;;;;1994202;72;25666;-88
2023/11/02 18:52:13;;;;;;;6.70;1.67;;;3.00;99.90;;;;;;1994081;71;25280;-88
2023/11/02 18:55:02;;;;;;;1.97;1.40;;;3.00;99.90;;;;;;1985589;70;25784;-89
2023/11/02 19:00:36;;;;;;;2.50;1.10;;;3.10;99.90;;;;;;1936431;72;27068;-89
2023/11/02 19:03:26;;;;;;;2.90;1.37;;;3.10;99.90;;;;;;1911856;73;25167;-88
2023/11/02 19:06:15;;;;;;;9.13;1.23;;;3.10;99.90;;;;;;1898101;75;25298;-88
2023/11/02 19:09:04;;;;;;;2.20;1.37;;;3.20;99.90;;;;;;1811749;78;25228;-89
2023/11/02 19:11:53;;;;;;;1.37;1.20;;;3.20;99.90;;;;;;1809433;77;25743;-89
2023/11/02 19:14:41;;;;;;;1.77;1.10;;;3.20;99.90;;;;;;1822314;77;25249;-89
2023/11/02 19:17:30;;;;;;;4.57;1.67;;;3.20;99.90;;;;;;1804332;77;25307;-89
2023/11/02 19:20:18;;;;;;;1.57;1.33;;;3.30;99.90;;;;;;1812093;77;25301;-89
2023/11/02 19:23:06;;;;;;;1.50;1.13;;;3.20;99.90;;;;;;1811065;77;25277;-89
2023/11/02 19:25:55;;;;;;;1.53;1.43;;;3.20;99.90;;;;;;1828912;77;25254;-89
2023/11/02 19:28:44;;;;;;;1.33;0.90;;;3.20;99.90;;;;;;1826477;77;25255;-89
2023/11/02 19:31:34;;;;;;;2.93;1.53;;;3.30;99.90;;;;;;1915505;73;25834;-89
2023/11/02 19:34:24;;;;;;;3.20;2.10;;;3.30;99.90;;;;;;1896037;75;25192;-89
2023/11/02 19:37:13;;;;;;;3.37;1.30;;;3.30;99.90;;;;;;1910718;74;25151;-89
2023/11/02 19:42:47;;;;;;;2.30;1.10;;;3.30;99.90;;;;;;1940789;72;27101;-89
2023/11/02 19:45:35;;;;;;;1.83;1.37;;;3.40;99.90;;;;;;1860317;76;25309;-88
2023/11/02 19:48:26;;;;;;;5.00;1.70;;;3.40;99.90;;;;;;1895179;74;25721;-89
2023/11/02 19:51:16;;;;;;;1.43;1.20;;;3.40;99.90;;;;;;1913968;74;25250;-89
2023/11/02 19:54:08;;;;;;;4.53;1.30;;;3.50;99.90;;;;;;1912410;74;25179;-89
2023/11/02 19:56:56;;;;;;;4.37;1.60;;;3.50;99.90;;;;;;1914050;73;25283;-89
2023/11/02 19:59:46;;;;;;;3.57;1.60;;;3.50;99.90;;;;;;1914172;74;25272;-88
2023/11/02 20:02:35;;;;;;;10.00;1.57;;;3.50;99.90;;;;;;1902156;74;25752;-89
2023/11/02 20:05:24;;;;;;;1.53;1.30;;;3.60;99.90;;;;;;1917165;73;25147;-88
2023/11/02 20:08:12;;;;;;;2.77;1.40;;;3.60;99.90;;;;;;1926729;73;25199;-89
2023/11/02 20:11:03;;;;;;;3.50;1.57;;;3.60;99.90;;;;;;1920046;74;25224;-89
2023/11/02 20:13:53;;;;;;;5.23;1.77;;;3.60;99.90;;;;;;1909228;74;25309;-90
2023/11/02 20:16:41;;;;;;;3.67;1.93;;;3.60;99.90;;;;;;1918466;73;25263;-89
2023/11/02 20:19:32;;;;;;;3.13;1.90;;;3.60;99.90;;;;;;1905771;74;25303;-90
2023/11/02 20:22:20;;;;;;;5.07;2.27;;;3.60;99.90;;;;;;1909813;74;25741;-90
2023/11/02 20:25:09;;;;;;;4.73;2.00;;;3.70;99.90;;;;;;1915701;73;25221;-89
2023/11/02 20:30:42;;;;;;;4.30;2.03;;;3.70;99.90;;;;;;1947775;72;26984;-90
2023/11/02 20:33:30;;;;;;;2.93;2.00;;;3.70;99.90;;;;;;1921367;73;25238;-90
2023/11/02 20:36:21;;;;;;;3.27;1.80;;;3.80;99.90;;;;;;1941905;73;25293;-90
2023/11/02 20:39:11;;;;;;;2.57;2.00;;;3.80;99.90;;;;;;1939507;72;25302;-89
2023/11/02 20:41:59;;;;;;;4.63;2.03;;;3.80;99.90;;;;;;1922766;72;25330;-90
2023/11/02 20:44:48;;;;;;;6.27;2.73;;;3.80;99.90;;;;;;1885421;74;25257;-90
2023/11/02 20:47:36;;;;;;;4.83;2.30;;;3.80;99.90;;;;;;1896569;74;25671;-90
2023/11/02 20:50:26;;;;;;;3.23;1.50;;;3.80;99.90;;;;;;1897033;74;25199;-90
2023/11/02 20:53:14;;;;;;;3.73;1.70;;;3.90;99.90;;;;;;1892141;74;25319;-90
2023/11/02 20:56:03;;;;;;;3.23;1.37;;;3.80;99.90;;;;;;1892492;74;25289;-90
2023/11/02 20:58:53;;;;;;;1.67;1.30;;;3.80;99.90;;;;;;1889332;74;25290;-90
2023/11/02 21:01:44;;;;;;;2.80;2.00;;;3.80;99.90;;;;;;1889338;74;25788;-90
2023/11/02 21:04:34;;;;;;;5.97;2.33;;;3.80;99.90;;;;;;1882265;74;25763;-90
2023/11/02 21:07:23;;;;;;;6.10;1.60;;;3.90;99.90;;;;;;1877995;74;25250;-90
2023/11/02 21:14:57;;;;;;;2.60;1.57;;;3.80;99.90;;;;;;2066119;68;26955;-90
2023/11/02 21:17:47;;;;;;;3.83;1.53;;;3.80;99.90;;;;;;1997702;71;25205;-90
2023/11/02 21:20:37;;;;;;;5.60;1.30;;;3.80;99.90;;;;;;2012223;69;25203;-90
2023/11/02 21:23:27;;;;;;;3.07;1.43;;;3.80;99.90;;;;;;2044124;69;25186;-90
2023/11/02 21:26:19;;;;;;;2.13;1.10;;;3.80;99.90;;;;;;2007244;71;25643;-90
2023/11/02 21:29:11;;;;;;;3.13;1.70;;;3.90;99.90;;;;;;2006882;71;25720;-90
2023/11/02 21:32:09;;;;;;;2.10;1.13;;;3.80;99.90;;;;;;2001481;71;25185;-90
2023/11/02 21:34:58;;;;;;;3.00;1.40;;;3.90;99.90;;;;;;1981919;71;25223;-90
2023/11/02 21:37:50;;;;;;;1.47;0.93;;;3.90;99.90;;;;;;2021860;69;25223;-90
2023/11/02 21:46:14;;;;;;;3.30;1.03;;;3.90;99.90;;;;;;1968606;71;27053;-90
2023/11/02 21:51:51;;;;;;;2.40;1.10;;;3.90;99.90;;;;;;1924689;74;27477;-90
2023/11/02 21:54:41;;;;;;;1.23;0.97;;;3.90;99.90;;;;;;1888722;74;25297;-90
2023/11/02 21:57:29;;;;;;;1.70;1.50;;;3.90;99.90;;;;;;1900312;74;25730;-90
2023/11/02 22:00:20;;;;;;;1.97;1.23;;;4.00;99.90;;;;;;1921569;73;25226;-90
2023/11/02 22:03:09;;;;;;;4.73;1.53;;;3.90;99.90;;;;;;1907319;74;25252;-91
2023/11/02 22:05:57;;;;;;;3.07;1.53;;;4.00;99.90;;;;;;1912821;73;25231;-90
2023/11/02 22:08:46;;;;;;;3.53;1.60;;;4.00;99.90;;;;;;1914516;73;25753;-91
2023/11/02 22:11:34;;;;;;;3.67;1.77;;;4.00;99.90;;;;;;1908432;74;25269;-90
2023/11/02 22:14:24;;;;;;;1.60;1.47;;;4.00;99.90;;;;;;1899728;74;25311;-90
2023/11/02 22:17:12;;;;;;;1.50;1.13;;;4.00;99.90;;;;;;1886562;75;25652;-90
2023/11/02 22:20:01;;;;;;;1.20;1.10;;;4.10;99.90;;;;;;1900772;73;25148;-89
2023/11/02 22:22:49;;;;;;;2.40;1.73;;;4.00;99.90;;;;;;1900136;73;25285;-89
2023/11/02 22:25:38;;;;;;;6.50;1.50;;;4.10;99.90;;;;;;1899087;73;25688;-89
2023/11/02 22:28:27;;;;;;;2.17;1.47;;;4.00;99.90;;;;;;1909189;73;25285;-89
2023/11/02 22:34:16;;;;;;;4.87;1.73;;;4.10;99.90;;;;;;1942782;72;27033;-90
2023/11/02 22:37:07;;;;;;;2.87;1.50;;;4.10;99.90;;;;;;1881873;75;25240;-90
2023/11/02 22:39:56;;;;;;;3.50;1.70;;;4.00;99.90;;;;;;1866346;76;25265;-90
2023/11/02 22:42:46;;;;;;;1.83;1.37;;;4.10;99.90;;;;;;1876795;75;25258;-90
2023/11/02 22:59:02;;;;;;;2.93;1.73;;;4.10;99.90;;;;;;1900162;74;27072;-89
2023/11/02 23:01:55;;;;;;;2.37;1.73;;;4.20;99.90;;;;;;1856149;75;25229;-90
2023/11/02 23:04:44;;;;;;;1.50;1.23;;;4.20;99.90;;;;;;1867743;75;25262;-89
2023/11/02 23:07:34;;;;;;;4.17;1.77;;;4.20;99.90;;;;;;1867334;75;25614;-89
2023/11/02 23:14:17;;;;;;;2.70;1.43;;;4.20;99.90;;;;;;1980550;71;28201;-89
2023/11/02 23:20:02;;;;;;;1.23;1.13;;;4.20;99.90;;;;;;1939955;72;27021;-90
2023/11/02 23:23:20;;;;;;;5.60;2.03;;;4.20;99.90;;;;;;1926203;72;25395;-90
2023/11/02 23:26:33;;;;;;;2.33;1.90;;;4.20;99.90;;;;;;1926166;72;25259;-91
2023/11/02 23:35:50;;;;;;;4.17;1.87;;;4.20;99.90;;;;;;1950139;72;27610;-91
2023/11/02 23:39:05;;;;;;;2.07;1.77;;;4.20;99.90;;;;;;1927545;73;25253;-90
2023/11/02 23:41:56;;;;;;;2.57;1.57;;;4.20;99.90;;;;;;1922001;73;25796;-90
2023/11/02 23:44:52;;;;;;;5.00;2.00;;;4.30;99.90;;;;;;1909253;73;26466;-90
2023/11/02 23:50:36;;;;;;;3.00;2.07;;;4.20;99.90;;;;;;1946312;72;26988;-90
2023/11/02 23:53:26;;;;;;;1.37;1.10;;;4.30;99.90;;;;;;1926644;73;25288;-90
2023/11/02 23:56:17;;;;;;;3.90;2.30;;;4.20;99.90;;;;;;1931169;73;25798;-90
2023/11/02 23:59:07;;;;;;;2.77;1.73;;;4.20;99.90;;;;;;1919352;73;25281;-90
